Time;durP1;ratioP1;P1;durP2;ratioP2;P2;SDS_P1;SDS_P2;PMS_P1;PMS_P2;Temp;Humidity;BMP_temperature;BMP_pressure;BME280_temperature;BME280_humidity;BME280_pressure;Samples;Min_cycle;Max_cycle;Signal;HPM_P1;HPM_P2
2022/05/01 00:01:48;;;;;;;28.33;19.10;;;10.00;99.90;;;10.37;69.49;98117.84;5042202;28;20051;-45
2022/05/01 00:04:16;;;;;;;32.43;19.23;;;10.00;99.90;;;10.36;68.92;98110.00;5042284;28;20082;-45
2022/05/01 00:06:44;;;;;;;28.27;19.43;;;10.00;99.90;;;10.41;69.02;98102.41;5041540;28;20362;-44
2022/05/01 00:09:12;;;;;;;28.43;21.03;;;10.10;99.90;;;10.46;69.02;98099.31;5042240;28;20057;-48
2022/05/01 00:11:41;;;;;;;27.67;20.43;;;10.20;99.90;;;10.41;69.16;98107.72;5042138;28;20057;-48
2022/05/01 00:14:09;;;;;;;28.80;19.67;;;10.10;99.90;;;10.42;68.64;98104.91;5045684;28;20051;-49
2022/05/01 00:16:37;;;;;;;28.73;19.73;;;10.10;99.90;;;10.41;69.17;98107.72;5048388;28;20037;-46
2022/05/01 00:19:05;;;;;;;29.00;19.63;;;10.00;99.90;;;10.35;69.15;98100.34;5049250;28;20049;-47
2022/05/01 00:21:33;;;;;;;35.27;20.87;;;9.90;99.90;;;10.25;69.33;98101.22;5049144;28;20050;-45
2022/05/01 00:24:01;;;;;;;32.10;21.27;;;9.80;99.90;;;10.23;69.04;98105.81;5048826;28;20358;-45
2022/05/01 00:26:28;;;;;;;34.10;19.30;;;9.80;99.90;;;10.21;68.97;98098.97;5048525;28;20061;-47
2022/05/01 00:29:01;;;;;;;30.97;18.93;;;9.80;99.90;;;10.24;69.38;98104.00;5047748;28;20124;-46
2022/05/01 00:31:29;;;;;;;28.43;19.17;;;9.80;99.90;;;10.23;69.11;98095.16;5048734;28;20049;-47
2022/05/01 00:36:43;;;;;;;32.87;21.37;;;10.00;99.90;;;10.17;69.20;98097.59;5048236;28;20231;-46
2022/05/01 00:39:11;;;;;;;31.70;20.63;;;9.80;99.90;;;10.15;69.06;98089.75;5048406;28;20045;-46
2022/05/01 00:41:40;;;;;;;27.33;19.33;;;9.70;99.90;;;10.20;69.24;98095.50;5048587;28;20042;-44
2022/05/01 00:44:12;;;;;;;28.13;19.57;;;9.80;99.90;;;10.15;69.44;98095.09;5048612;28;20053;-46
2022/05/01 00:46:51;;;;;;;32.03;20.80;;;9.70;99.90;;;10.17;69.24;98089.63;5048126;28;20248;-45
2022/05/01 00:49:25;;;;;;;32.83;20.37;;;9.80;99.90;;;10.25;69.67;98084.38;5048373;28;20053;-45
2022/05/01 00:52:08;;;;;;;30.70;19.30;;;10.00;99.90;;;10.33;69.51;98087.19;5047228;28;20247;-46
2022/05/01 00:54:43;;;;;;;31.23;18.00;;;10.00;99.90;;;10.40;69.43;98084.75;5048285;28;20045;-44
2022/05/01 00:57:11;;;;;;;30.57;19.67;;;10.10;99.90;;;10.43;69.14;98079.97;5048227;28;20053;-46
2022/05/01 00:59:39;;;;;;;27.43;17.37;;;10.20;99.90;;;10.44;68.48;98078.97;5047822;28;20063;-44
2022/05/01 01:02:08;;;;;;;29.27;19.93;;;10.20;99.90;;;10.47;68.47;98087.66;5048368;28;20038;-45
2022/05/01 01:04:38;;;;;;;29.73;19.27;;;10.20;99.90;;;10.47;68.41;98075.19;5048507;28;20050;-46
2022/05/01 01:07:05;;;;;;;31.73;19.60;;;10.20;99.90;;;10.43;68.66;98074.66;5047952;28;20045;-46
2022/05/01 01:09:35;;;;;;;29.57;19.90;;;10.10;99.90;;;10.41;68.49;98070.44;5048009;28;20045;-45
2022/05/01 01:14:50;;;;;;;27.70;19.10;;;10.00;99.90;;;10.37;67.86;98067.28;5048080;28;20358;-44
2022/05/01 01:17:18;;;;;;;30.90;19.10;;;10.00;99.90;;;10.28;68.12;98075.28;5047897;28;20229;-45
2022/05/01 01:19:46;;;;;;;32.90;21.00;;;9.80;99.90;;;10.18;68.23;98078.84;5048783;28;20117;-46
2022/05/01 01:22:15;;;;;;;32.70;19.90;;;9.70;99.90;;;10.15;68.75;98080.94;5046518;28;20057;-45
2022/05/01 01:24:44;;;;;;;33.10;20.70;;;9.70;99.90;;;10.13;68.82;98078.44;5045940;28;20057;-46
2022/05/01 01:27:15;;;;;;;34.70;20.70;;;9.70;99.90;;;10.14;68.92;98088.09;5042889;28;20056;-49
2022/05/01 01:32:34;;;;;;;31.50;19.70;;;9.70;99.90;;;10.22;68.55;98087.38;5044875;28;20064;-45
2022/05/01 01:35:04;;;;;;;31.70;19.77;;;9.90;99.90;;;10.28;68.56;98085.94;5043877;28;20075;-45
2022/05/01 01:37:34;;;;;;;28.27;19.23;;;10.00;99.90;;;10.28;68.91;98084.09;5045373;28;20057;-45
2022/05/01 01:40:02;;;;;;;31.57;19.47;;;10.00;99.90;;;10.27;68.41;98090.41;5043911;28;20049;-46
2022/05/01 01:42:31;;;;;;;32.90;21.37;;;9.90;99.90;;;10.28;68.77;98084.09;5044833;28;20053;-45
2022/05/01 01:45:00;;;;;;;31.47;19.47;;;9.90;99.90;;;10.27;68.58;98085.06;5043488;28;20267;-46
2022/05/01 01:47:28;;;;;;;30.50;19.43;;;9.90;99.90;;;10.22;68.63;98074.88;5043781;28;20067;-46
2022/05/01 01:49:55;;;;;;;32.73;19.67;;;9.80;99.90;;;10.15;68.65;98083.59;5044596;28;20052;-45
2022/05/01 01:52:23;;;;;;;36.93;20.57;;;9.70;99.90;;;10.18;68.48;98080.66;5044543;28;20046;-47
2022/05/01 01:54:51;;;;;;;31.30;19.57;;;9.70;99.90;;;10.23;69.07;98079.22;5044438;28;20340;-48
2022/05/01 01:57:19;;;;;;;33.07;20.47;;;9.80;99.90;;;10.27;68.52;98070.94;5044464;28;20054;-46
2022/05/01 01:59:47;;;;;;;36.50;20.50;;;9.90;99.90;;;10.27;68.68;98076.25;5044756;28;20340;-47
2022/05/01 02:02:15;;;;;;;31.37;18.80;;;9.90;99.90;;;10.30;68.53;98070.66;5044362;28;20046;-44
2022/05/01 02:04:43;;;;;;;31.50;19.73;;;9.90;99.90;;;10.33;68.94;98065.91;5044718;28;20057;-45
2022/05/01 02:07:11;;;;;;;30.00;19.07;;;10.00;99.90;;;10.35;68.84;98060.41;5042647;28;20045;-43
2022/05/01 02:09:39;;;;;;;30.90;19.17;;;10.10;99.90;;;10.38;68.38;98060.94;5044791;28;20071;-44
2022/05/01 02:12:08;;;;;;;33.67;19.60;;;10.10;99.90;;;10.35;68.35;98058.59;5044466;28;20071;-45
2022/05/01 02:14:36;;;;;;;31.33;20.07;;;10.00;99.90;;;10.26;68.53;98056.81;5044093;28;20046;-45
2022/05/01 02:17:04;;;;;;;30.70;20.20;;;9.80;99.90;;;10.17;68.76;98058.53;5044117;28;20178;-49
2022/05/01 02:19:33;;;;;;;30.70;21.13;;;9.70;99.90;;;10.11;68.71;98060.94;5042917;28;20052;-45
2022/05/01 02:22:01;;;;;;;31.60;20.50;;;9.70;99.90;;;10.14;69.00;98055.31;5044081;28;20052;-44
2022/05/01 02:24:30;;;;;;;32.23;21.53;;;9.70;99.90;;;10.08;68.81;98051.44;5044250;28;20049;-45
2022/05/01 02:26:58;;;;;;;33.87;20.27;;;9.70;99.90;;;10.04;69.12;98048.25;5044038;28;20063;-46
2022/05/01 02:29:27;;;;;;;36.47;22.23;;;9.60;99.90;;;10.02;68.82;98049.34;5044068;28;20052;-47
2022/05/01 02:31:55;;;;;;;34.13;20.77;;;9.60;99.90;;;9.90;69.13;98045.22;5043810;28;20049;-44
2022/05/01 02:34:24;;;;;;;36.87;21.73;;;9.40;99.90;;;9.94;69.22;98044.78;5043694;28;20059;-47
2022/05/01 02:36:52;;;;;;;32.90;19.53;;;9.50;99.90;;;9.95;69.53;98043.81;5043000;28;20045;-47
2022/05/01 02:39:21;;;;;;;31.07;21.00;;;9.50;99.90;;;9.98;69.09;98043.53;5043847;28;20209;-47
2022/05/01 02:41:50;;;;;;;36.67;21.63;;;9.60;99.90;;;10.03;68.98;98045.72;5043571;28;20172;-45
2022/05/01 02:44:18;;;;;;;37.23;21.43;;;9.70;99.90;;;10.00;69.14;98046.00;5043676;28;20045;-46
2022/05/01 02:46:46;;;;;;;32.13;20.53;;;9.70;99.90;;;9.98;68.84;98046.19;5042908;28;20049;-46
2022/05/01 02:49:14;;;;;;;36.57;21.90;;;9.60;99.90;;;9.83;69.60;98043.16;5043908;28;20358;-44
2022/05/01 02:51:42;;;;;;;39.10;22.97;;;9.40;99.90;;;9.81;69.14;98041.66;5043389;28;20075;-44
2022/05/01 02:54:10;;;;;;;32.80;21.27;;;9.40;99.90;;;9.80;69.66;98047.94;5043609;28;20069;-48
2022/05/01 02:56:38;;;;;;;31.97;21.13;;;9.30;99.90;;;9.79;69.76;98030.28;5042832;28;20217;-45
2022/05/01 02:59:09;;;;;;;35.00;21.40;;;9.40;99.90;;;9.78;69.68;98040.09;5043160;28;20060;-45
2022/05/01 03:01:37;;;;;;;34.67;22.20;;;9.40;99.90;;;9.78;70.11;98037.44;5042216;28;20053;-44
2022/05/01 03:04:05;;;;;;;31.30;20.77;;;9.40;99.90;;;9.80;69.64;98034.63;5042077;28;20049;-47
2022/05/01 03:06:34;;;;;;;29.77;20.27;;;9.40;99.90;;;9.80;69.94;98037.28;5042707;28;20059;-48
2022/05/01 03:09:03;;;;;;;37.03;21.20;;;9.40;99.90;;;9.82;69.92;98030.00;5043417;28;20059;-44
2022/05/01 03:11:32;;;;;;;34.33;21.67;;;9.50;99.90;;;9.84;69.90;98031.53;5043050;28;20343;-45
2022/05/01 03:14:00;;;;;;;40.03;22.13;;;9.50;99.90;;;9.85;69.57;98030.56;5043238;28;20319;-45
2022/05/01 03:16:27;;;;;;;32.77;21.77;;;9.50;99.90;;;9.86;69.91;98036.69;5043233;28;20053;-45
2022/05/01 03:24:29;;;;;;;33.70;20.47;;;9.50;99.90;;;9.91;70.09;98025.63;5042784;28;20099;-45
2022/05/01 03:26:56;;;;;;;34.13;21.43;;;9.60;99.90;;;9.93;69.71;98023.66;5042406;28;20075;-44
2022/05/01 03:29:24;;;;;;;34.27;21.00;;;9.60;99.90;;;9.94;69.64;98022.66;5042489;28;20255;-44
2022/05/01 03:31:53;;;;;;;32.73;20.40;;;9.60;99.90;;;9.97;69.56;98020.56;5042698;28;20055;-46
2022/05/01 03:34:22;;;;;;;31.83;23.40;;;9.60;99.90;;;9.93;69.59;98021.84;5042606;28;20041;-47
2022/05/01 03:36:50;;;;;;;31.03;20.67;;;9.50;99.90;;;9.92;69.84;98028.13;5041933;28;20045;-48
2022/05/01 03:39:18;;;;;;;46.03;26.40;;;9.50;99.90;;;9.93;69.52;98021.84;5042595;28;20251;-46
2022/05/01 03:41:46;;;;;;;33.47;21.83;;;9.60;99.90;;;9.84;70.03;98023.53;5042535;28;20107;-46
2022/05/01 03:44:14;;;;;;;35.13;22.10;;;9.40;99.90;;;9.81;69.74;98020.38;5042748;28;20057;-44
2022/05/01 03:46:42;;;;;;;33.57;20.40;;;9.40;99.90;;;9.76;70.20;98027.94;5041899;28;20064;-45
2022/05/01 03:49:09;;;;;;;33.40;20.93;;;9.30;99.90;;;9.80;70.13;98019.50;5041144;28;20059;-45
2022/05/01 03:51:37;;;;;;;34.83;21.83;;;9.40;99.90;;;9.86;70.08;98023.41;5042139;28;20358;-48
2022/05/01 03:54:05;;;;;;;34.17;20.80;;;9.50;99.90;;;9.91;70.03;98023.81;5042369;28;20045;-45
2022/05/01 03:56:33;;;;;;;30.77;20.60;;;9.60;99.90;;;9.91;70.24;98028.31;5041955;28;20049;-44
2022/05/01 03:59:04;;;;;;;34.73;21.27;;;9.60;99.90;;;9.83;70.17;98027.22;5042297;28;20248;-47
2022/05/01 04:01:33;;;;;;;35.67;22.07;;;9.50;99.90;;;9.79;70.47;98027.63;5042166;28;20220;-44
2022/05/01 04:04:01;;;;;;;32.20;21.10;;;9.40;99.90;;;9.83;70.23;98029.03;5042160;28;20041;-46
2022/05/01 04:06:29;;;;;;;34.93;21.47;;;9.40;99.90;;;9.79;70.47;98030.28;5041798;28;20057;-45
2022/05/01 04:08:57;;;;;;;32.23;19.33;;;9.40;99.90;;;9.76;70.47;98039.41;5042198;28;20051;-47
2022/05/01 04:11:25;;;;;;;36.30;21.17;;;9.40;99.90;;;9.81;70.44;98039.81;5041988;28;20056;-44
2022/05/01 04:13:53;;;;;;;35.50;21.07;;;9.40;99.90;;;9.86;70.13;98034.03;5040934;28;20049;-47
2022/05/01 04:16:21;;;;;;;32.00;20.70;;;9.50;99.90;;;9.83;70.46;98029.88;5042147;28;20244;-46
2022/05/01 04:18:49;;;;;;;33.40;20.50;;;9.50;99.90;;;9.83;70.08;98034.34;5042118;28;20053;-44
2022/05/01 04:21:16;;;;;;;36.20;20.13;;;9.50;99.90;;;9.78;70.18;98031.28;5041872;28;20336;-48
2022/05/01 04:23:44;;;;;;;32.53;22.93;;;9.40;99.90;;;9.78;70.39;98032.13;5041992;28;20046;-47
2022/05/01 04:26:12;;;;;;;31.93;21.90;;;9.40;99.90;;;9.82;70.16;98027.34;5041549;28;20050;-46
2022/05/01 04:29:36;;;;;;;40.10;22.57;;;9.50;99.90;;;9.90;70.14;98032.75;5041270;28;20057;-44
2022/05/01 04:31:28;;;;;;;39.20;23.30;;;9.60;99.90;;;9.96;70.48;98034.00;5042012;28;20348;-47
2022/05/01 04:33:56;;;;;;;31.60;19.77;;;9.70;99.90;;;10.01;70.42;98037.88;5041851;28;20056;-47
2022/05/01 04:36:25;;;;;;;37.20;21.10;;;9.70;99.90;;;9.99;70.13;98039.03;5041517;28;20045;-44
2022/05/01 04:38:53;;;;;;;30.90;20.63;;;9.60;99.90;;;9.92;70.01;98041.44;5040991;28;20247;-47
2022/05/01 04:41:21;;;;;;;36.10;21.70;;;9.50;99.90;;;9.97;69.88;98041.84;5042496;28;20053;-45
2022/05/01 04:43:49;;;;;;;31.50;21.17;;;9.60;99.90;;;9.95;69.92;98038.47;5041868;28;20046;-46
2022/05/01 04:46:17;;;;;;;33.73;22.17;;;9.60;99.90;;;9.86;70.44;98042.84;5041481;28;20049;-47
2022/05/01 04:48:45;;;;;;;34.90;22.73;;;9.50;99.90;;;9.88;70.29;98049.84;5041082;28;20045;-49
2022/05/01 04:51:13;;;;;;;36.60;21.53;;;9.50;99.90;;;9.86;70.14;98050.81;5041739;28;20049;-46
2022/05/01 04:53:41;;;;;;;34.30;22.10;;;9.50;99.90;;;9.95;70.10;98043.81;5041698;28;20273;-44
2022/05/01 04:58:55;;;;;;;33.80;22.07;;;9.70;99.90;;;9.93;70.34;98052.94;5041773;28;20051;-44
2022/05/01 05:01:23;;;;;;;37.73;22.37;;;9.50;99.90;;;9.93;70.25;98047.59;5045105;28;20049;-45
2022/05/01 05:03:51;;;;;;;37.43;22.47;;;9.60;99.90;;;9.98;70.71;98047.97;5045488;28;20059;-45
2022/05/01 05:06:21;;;;;;;41.53;24.10;;;9.60;99.90;;;9.96;70.56;98050.78;5044851;28;20049;-46
2022/05/01 05:11:35;;;;;;;35.63;22.00;;;9.60;99.90;;;9.92;70.05;98054.72;5045635;28;20057;-45
2022/05/01 05:14:04;;;;;;;36.50;21.33;;;9.50;99.90;;;9.91;70.38;98053.06;5044097;28;20053;-45
2022/05/01 05:16:33;;;;;;;28.53;19.70;;;9.50;99.90;;;9.92;70.17;98057.38;5044788;28;20052;-45
2022/05/01 05:19:01;;;;;;;31.07;20.10;;;9.60;99.90;;;9.83;70.40;98053.78;5045161;28;20045;-48
2022/05/01 05:21:29;;;;;;;34.30;21.20;;;9.50;99.90;;;9.84;70.64;98058.13;5045066;28;20048;-45
2022/05/01 05:23:57;;;;;;;35.40;21.73;;;9.50;99.90;;;9.88;70.36;98065.81;5045008;28;20045;-50
2022/05/01 05:26:25;;;;;;;32.10;20.90;;;9.60;99.90;;;9.82;70.79;98068.06;5044560;28;20045;-44
2022/05/01 05:28:53;;;;;;;30.97;19.80;;;9.50;99.90;;;9.78;70.66;98069.34;5044837;28;20084;-44
2022/05/01 05:31:20;;;;;;;30.53;18.97;;;9.50;99.90;;;9.82;70.78;98068.06;5045190;28;20041;-48
2022/05/01 05:33:48;;;;;;;29.70;18.33;;;9.50;99.90;;;9.80;70.78;98070.03;5044859;28;20247;-45
2022/05/01 05:36:16;;;;;;;36.10;21.47;;;9.60;99.90;;;9.83;70.72;98075.06;5044351;28;20045;-47
2022/05/01 05:38:44;;;;;;;32.03;20.90;;;9.60;99.90;;;9.93;71.04;98074.19;5044810;28;20045;-45
2022/05/01 05:41:18;;;;;;;29.73;20.55;;;9.70;99.90;;;9.96;70.61;98073.88;5044682;28;20049;-47
2022/05/01 05:43:46;;;;;;;28.37;19.30;;;9.70;99.90;;;9.88;70.66;98071.13;5045189;28;20053;-45
2022/05/01 05:46:14;;;;;;;32.93;21.13;;;9.50;99.90;;;9.88;70.29;98068.47;5044244;28;20053;-45
2022/05/01 05:48:42;;;;;;;29.20;19.47;;;9.60;99.90;;;9.99;70.37;98068.28;5043788;28;20053;-47
2022/05/01 05:51:10;;;;;;;30.23;19.13;;;9.70;99.90;;;9.99;70.06;98068.28;5044231;28;20053;-45
2022/05/01 05:53:38;;;;;;;30.53;19.53;;;9.70;99.90;;;9.96;70.16;98064.09;5044897;28;20065;-45
2022/05/01 05:56:06;;;;;;;29.90;19.87;;;9.70;99.90;;;10.03;70.23;98069.66;5043220;28;20252;-47
2022/05/01 05:58:33;;;;;;;30.00;18.83;;;9.70;99.90;;;10.10;70.22;98061.91;5044447;28;20052;-45
2022/05/01 06:01:01;;;;;;;30.60;17.83;;;9.80;99.90;;;10.10;70.15;98062.78;5044274;28;20049;-46
2022/05/01 06:03:29;;;;;;;25.87;17.53;;;9.90;99.90;;;9.91;69.81;98058.38;5044728;28;20045;-45
2022/05/01 06:05:57;;;;;;;29.80;18.90;;;9.70;99.90;;;9.78;70.28;98066.69;5043939;28;20059;-45
2022/05/01 06:08:25;;;;;;;30.97;19.60;;;9.50;99.90;;;9.70;70.62;98068.41;5044678;28;20057;-45
2022/05/01 06:10:53;;;;;;;31.63;19.10;;;9.50;99.90;;;9.83;70.67;98066.25;5043930;28;20053;-46
2022/05/01 06:13:21;;;;;;;27.27;19.50;;;9.60;99.90;;;10.00;70.73;98073.47;5043833;28;20123;-47
2022/05/01 06:15:49;;;;;;;28.73;17.90;;;9.80;99.90;;;10.13;70.46;98064.31;5043669;28;20061;-47
2022/05/01 06:18:16;;;;;;;28.47;17.80;;;10.00;99.90;;;10.11;70.50;98064.44;5044017;28;20092;-44
2022/05/01 06:20:45;;;;;;;28.70;19.40;;;10.00;99.90;;;9.88;70.49;98061.31;5043897;28;20049;-45
2022/05/01 06:23:12;;;;;;;29.37;20.37;;;9.70;99.90;;;9.99;70.74;98063.81;5043912;28;20429;-48
2022/05/01 06:25:44;;;;;;;30.13;21.10;;;9.80;99.90;;;9.83;71.21;98071.59;5043826;28;20063;-46
2022/05/01 06:28:16;;;;;;;33.43;21.37;;;9.70;99.90;;;9.80;71.03;98070.03;5043947;28;20049;-45
2022/05/01 06:30:46;;;;;;;26.67;19.37;;;9.60;99.90;;;9.90;71.08;98072.66;5043864;28;20336;-45
2022/05/01 06:33:17;;;;;;;32.40;17.00;;;9.70;99.90;;;9.94;70.84;98082.00;5044014;28;20053;-45
2022/05/01 06:35:49;;;;;;;30.40;18.93;;;9.70;99.90;;;10.04;70.85;98077.50;5042092;28;20045;-46
2022/05/01 06:38:17;;;;;;;29.70;18.50;;;9.80;99.90;;;10.18;70.97;98081.50;5042747;28;20052;-49
2022/05/01 06:40:46;;;;;;;26.77;17.70;;;10.10;99.90;;;10.23;70.62;98081.88;5043740;28;20049;-45
2022/05/01 06:43:17;;;;;;;30.07;18.93;;;10.10;99.90;;;10.20;70.71;98082.19;5043569;28;20056;-48
2022/05/01 06:45:45;;;;;;;25.83;17.50;;;10.00;99.90;;;10.35;70.54;98081.69;5043265;28;20072;-44
2022/05/01 06:48:18;;;;;;;28.60;19.27;;;10.20;99.90;;;10.39;69.99;98083.94;5042753;28;20049;-45
2022/05/01 06:50:47;;;;;;;28.10;19.07;;;10.20;99.90;;;10.39;70.25;98080.41;5043530;28;20053;-46
2022/05/01 06:53:15;;;;;;;41.00;17.67;;;10.30;99.90;;;10.38;69.63;98076.91;5043758;28;20049;-47
2022/05/01 06:55:44;;;;;;;25.57;18.23;;;10.20;99.90;;;10.31;70.00;98070.50;5043156;28;20061;-47
2022/05/01 06:58:17;;;;;;;30.40;18.17;;;10.10;99.90;;;10.33;69.72;98075.69;5043015;28;20051;-49
2022/05/01 07:00:45;;;;;;;26.65;17.83;;;10.10;99.90;;;10.35;69.79;98079.91;5043326;28;20045;-45
2022/05/01 07:03:13;;;;;;;38.03;18.00;;;10.20;99.90;;;10.42;69.97;98080.13;5043262;28;20049;-45
2022/05/01 07:05:41;;;;;;;28.00;17.33;;;10.20;99.90;;;10.51;69.77;98086.41;5042665;28;20056;-46
2022/05/01 07:08:09;;;;;;;26.43;17.27;;;10.40;99.90;;;10.54;69.36;98089.56;5042109;28;20052;-45
2022/05/01 07:10:37;;;;;;;22.70;15.73;;;10.40;99.90;;;10.57;69.69;98093.78;5043397;28;20390;-47
2022/05/01 07:13:04;;;;;;;23.13;16.80;;;10.50;99.90;;;10.68;69.75;98095.38;5043111;28;20342;-46
2022/05/01 07:15:32;;;;;;;25.23;17.98;;;10.60;99.90;;;10.60;69.10;98089.00;5042576;28;20045;-45
2022/05/01 07:18:00;;;;;;;27.63;17.02;;;10.50;99.90;;;10.72;69.67;98094.06;5042955;28;20060;-44
2022/05/01 07:20:29;;;;;;;28.20;16.80;;;10.60;99.90;;;10.75;69.54;98091.94;5042757;28;20041;-45
2022/05/01 07:22:57;;;;;;;28.52;18.95;;;10.60;99.90;;;10.81;69.38;98088.69;5042389;28;20045;-50
2022/05/01 07:25:25;;;;;;;25.60;16.70;;;10.70;99.90;;;10.95;69.47;98086.47;5042599;28;20071;-45
2022/05/01 07:27:52;;;;;;;30.42;17.17;;;10.90;99.90;;;10.99;69.23;98090.50;5042839;28;20055;-47
2022/05/01 07:30:20;;;;;;;24.03;16.93;;;10.90;99.90;;;11.10;68.73;98095.59;5042234;28;20065;-45
2022/05/01 07:32:48;;;;;;;23.10;15.63;;;11.10;99.90;;;11.13;68.83;98087.31;5042641;28;20075;-45
2022/05/01 07:35:16;;;;;;;22.08;16.13;;;11.00;99.90;;;11.21;68.39;98087.38;5042978;28;20057;-46
2022/05/01 07:37:44;;;;;;;26.77;16.88;;;11.10;99.90;;;11.32;68.53;98093.44;5042049;28;20045;-46
2022/05/01 07:40:13;;;;;;;22.67;16.87;;;11.20;99.90;;;11.42;68.52;98086.22;5041942;28;20049;-44
2022/05/01 07:42:41;;;;;;;25.50;16.70;;;11.40;99.90;;;11.47;68.30;98086.56;5041504;28;20352;-46
2022/05/01 07:45:09;;;;;;;24.00;16.15;;;11.50;99.90;;;11.54;68.21;98084.13;5042105;28;20055;-45
2022/05/01 07:47:37;;;;;;;23.35;16.52;;;11.50;99.90;;;11.50;67.49;98083.59;5040501;28;20055;-46
2022/05/01 07:50:06;;;;;;;26.05;17.17;;;11.40;99.90;;;11.56;67.56;98092.78;5042284;28;20049;-46
2022/05/01 07:52:35;;;;;;;22.85;17.40;;;11.50;99.90;;;11.61;67.40;98090.47;5042161;28;20060;-47
2022/05/01 07:55:04;;;;;;;20.98;16.40;;;11.50;99.90;;;11.69;67.25;98089.69;5040964;28;20344;-45
2022/05/01 07:57:32;;;;;;;21.15;14.15;;;11.70;99.90;;;11.77;67.79;98082.59;5041506;28;20057;-46
2022/05/01 08:00:00;;;;;;;20.77;14.43;;;11.80;99.90;;;11.88;67.12;98077.97;5042597;28;20049;-46
2022/05/01 08:04:28;;;;;;;24.45;15.35;;;12.00;99.90;;;11.97;67.12;98077.88;5045338;28;20041;-46
2022/05/01 08:05:27;;;;;;;;;;;12.10;99.90;;;11.96;66.22;98076.22;5042138;28;20045;-49
2022/05/01 08:07:57;;;;;;;18.35;14.00;;;12.10;99.90;;;12.06;66.71;98075.25;5042063;28;19935;-47
2022/05/01 08:10:25;;;;;;;18.83;13.32;;;12.20;99.90;;;12.06;65.83;98075.25;5041894;28;20246;-46
2022/05/01 08:12:56;;;;;;;19.50;14.93;;;12.10;99.90;;;12.10;65.79;98074.78;5042504;28;20057;-50
2022/05/01 08:15:24;;;;;;;22.98;14.85;;;12.20;99.90;;;12.20;65.95;98078.16;5041598;28;20248;-47
2022/05/01 08:17:52;;;;;;;17.40;12.85;;;12.30;99.90;;;12.34;65.99;98079.38;5041746;28;20057;-44
2022/05/01 08:21:08;;;;;;;18.38;13.27;;;12.50;99.90;;;12.46;65.62;98079.06;5041838;28;20048;-47
2022/05/01 08:23:14;;;;;;;17.38;13.13;;;12.60;99.90;;;12.49;65.01;98079.59;5041170;28;20057;-48
2022/05/01 08:25:42;;;;;;;17.88;13.27;;;12.70;99.90;;;12.55;65.05;98078.09;5056711;28;20051;-46
2022/05/01 08:28:10;;;;;;;20.92;14.98;;;12.80;99.90;;;12.59;65.03;98076.78;5041845;28;20053;-46
2022/05/01 08:30:38;;;;;;;16.77;13.10;;;12.80;99.90;;;12.63;64.73;98085.31;5041903;28;20057;-48
2022/05/01 08:33:06;;;;;;;20.08;13.25;;;12.90;99.90;;;12.70;64.46;98081.81;5041820;28;20340;-46
2022/05/01 08:35:33;;;;;;;19.08;13.60;;;12.90;99.90;;;12.75;64.40;98082.13;5043617;28;20344;-49
2022/05/01 08:38:01;;;;;;;21.63;13.43;;;12.90;99.90;;;12.80;64.20;98079.81;5046155;28;20348;-47
2022/05/01 08:40:29;;;;;;;19.98;14.40;;;13.00;99.90;;;12.77;63.62;98073.97;5045635;28;20209;-46
2022/05/01 08:43:00;;;;;;;19.05;13.88;;;12.80;99.90;;;12.75;63.87;98071.44;5045657;28;20045;-44
2022/05/01 08:46:09;;;;;;;18.45;14.02;;;12.80;99.90;;;12.77;62.58;98074.78;5045091;28;20049;-44
2022/05/01 08:48:53;;;;;;;19.88;12.50;;;12.80;99.90;;;12.66;61.94;98071.59;5044421;28;20049;-45
2022/05/01 08:51:21;;;;;;;;;;;12.70;99.90;;;12.65;62.94;98072.63;5045826;28;20053;-45
2022/05/01 08:53:50;;;;;;;16.75;11.73;;;12.70;99.90;;;12.83;63.42;98077.81;5045254;28;19916;-49
2022/05/01 08:56:19;;;;;;;19.45;12.88;;;12.90;99.90;;;12.96;63.00;98073.66;5044990;28;20045;-46
2022/05/01 08:58:48;;;;;;;14.95;12.27;;;13.20;99.90;;;13.06;62.72;98073.50;5045750;28;20068;-47
2022/05/01 09:01:18;;;;;;;14.32;11.38;;;13.30;99.90;;;13.04;60.33;98066.66;5045523;28;20112;-47
2022/05/01 09:03:46;;;;;;;19.42;12.88;;;13.10;79.40;;;13.08;62.01;98067.97;5045717;28;20263;-46
2022/05/01 09:06:14;;;;;;;16.90;12.48;;;13.20;87.90;;;13.18;62.25;98074.84;5044837;28;20051;-45
2022/05/01 09:08:42;;;;;;;15.45;12.50;;;13.30;88.40;;;13.24;62.59;98073.34;5046163;28;20256;-45
2022/05/01 09:14:06;;;;;;;17.52;11.93;;;13.60;86.60;;;13.45;62.44;98064.81;5045363;28;20051;-45
2022/05/01 09:16:37;;;;;;;14.00;9.80;;;13.80;85.80;;;13.45;60.57;98069.34;5044495;28;20331;-47
2022/05/01 09:19:05;;;;;;;14.05;9.88;;;13.80;82.00;;;13.44;60.32;98067.69;5045291;28;20056;-47
2022/05/01 09:21:54;;;;;;;14.75;11.00;;;13.70;80.20;;;13.42;60.08;98062.50;5045092;28;20358;-44
2022/05/01 09:24:27;;;;;;;17.58;9.90;;;13.60;74.90;;;13.41;59.79;98063.47;5044875;28;20051;-49
2022/05/01 09:26:57;;;;;;;14.32;11.52;;;13.60;78.80;;;13.48;60.22;98058.31;5044491;28;20049;-48
2022/05/01 09:29:32;;;;;;;13.95;11.25;;;13.70;79.00;;;13.56;59.71;98060.97;5044966;28;20212;-45
2022/05/01 09:32:03;;;;;;;12.82;10.20;;;13.80;77.40;;;13.66;59.29;98058.09;5044942;28;20045;-46
2022/05/01 09:34:35;;;;;;;14.88;9.77;;;13.90;76.80;;;13.74;59.50;98066.09;5045018;28;20052;-47
2022/05/01 09:37:18;;;;;;;14.82;11.02;;;14.00;76.90;;;13.81;59.90;98061.75;5044737;28;20057;-46
2022/05/01 09:39:49;;;;;;;14.23;11.80;;;14.10;74.80;;;13.88;59.15;98061.88;5044908;28;20042;-47
2022/05/01 09:42:21;;;;;;;13.90;10.38;;;14.20;74.70;;;13.91;58.58;98059.69;5044743;28;20049;-47
2022/05/01 09:45:07;;;;;;;13.82;10.43;;;14.20;73.60;;;13.94;57.23;98063.88;5045355;28;20056;-47
2022/05/01 09:47:43;;;;;;;15.50;10.13;;;14.30;69.20;;;13.97;58.69;98067.03;5041297;28;20045;-49
2022/05/01 09:50:14;;;;;;;14.23;10.75;;;14.30;73.20;;;13.97;57.75;98058.19;5044388;28;20060;-46
2022/05/01 09:52:56;;;;;;;13.75;10.55;;;14.40;69.50;;;13.99;56.51;98066.88;5044741;28;20244;-46
2022/05/01 09:55:26;;;;;;;12.77;10.05;;;14.40;69.00;;;14.02;57.64;98058.50;5044253;28;20053;-45
2022/05/01 09:58:12;;;;;;;15.68;11.35;;;14.30;71.10;;;14.06;57.73;98062.50;5043248;28;20041;-45
2022/05/01 10:00:46;;;;;;;17.08;10.90;;;14.40;69.90;;;14.20;57.73;98065.47;5044591;28;20055;-48
2022/05/01 10:03:29;;;;;;;13.35;10.38;;;14.60;72.00;;;14.25;56.71;98061.25;5044464;28;20041;-46
2022/05/01 10:05:59;;;;;;;13.57;10.25;;;14.60;67.70;;;14.26;56.70;98062.91;5043637;28;20057;-46
2022/05/01 10:08:27;;;;;;;12.77;10.15;;;14.60;69.10;;;14.31;56.37;98055.19;5044561;28;20087;-48
2022/05/01 10:10:58;;;;;;;12.90;10.95;;;14.60;68.80;;;14.35;56.40;98063.72;5043051;28;20050;-47
2022/05/01 10:13:27;;;;;;;13.23;10.02;;;14.70;69.30;;;14.44;56.72;98065.31;5044318;28;20059;-48
2022/05/01 10:16:11;;;;;;;13.57;10.23;;;14.80;69.50;;;14.42;55.75;98056.63;5043713;28;20260;-47
2022/05/01 10:18:46;;;;;;;12.60;9.63;;;14.80;66.30;;;14.48;56.32;98064.00;5043072;28;20291;-46
2022/05/01 10:21:36;;;;;;;12.63;10.18;;;14.80;68.60;;;14.59;55.89;98061.94;5043790;28;20051;-48
2022/05/01 10:24:05;;;;;;;14.50;10.63;;;14.80;67.10;;;14.62;55.71;98061.56;5043020;28;20061;-48
2022/05/01 10:26:38;;;;;;;14.27;10.95;;;14.90;67.80;;;14.63;55.72;98058.72;5042430;28;20283;-48
2022/05/01 10:29:35;;;;;;;13.40;10.27;;;14.90;67.40;;;14.67;55.51;98051.16;5043595;28;20054;-46
2022/05/01 10:32:24;;;;;;;13.90;10.73;;;14.90;63.70;;;14.72;55.56;98055.00;5044025;28;20045;-47
2022/05/01 10:35:32;;;;;;;15.02;10.30;;;15.00;65.40;;;14.76;55.30;98045.56;5044039;28;20239;-49
2022/05/01 10:38:14;;;;;;;13.30;9.38;;;15.10;64.00;;;14.80;53.11;98043.38;5043448;28;20050;-47
2022/05/01 10:40:51;;;;;;;13.15;9.82;;;15.10;63.60;;;14.88;54.34;98039.81;5043636;28;20053;-46
2022/05/01 10:43:27;;;;;;;12.95;9.77;;;15.30;65.10;;;14.91;53.80;98042.13;5044444;28;20057;-45
2022/05/01 10:46:01;;;;;;;13.23;10.82;;;15.20;63.80;;;14.93;53.87;98040.94;5043602;28;20053;-46
2022/05/01 10:48:40;;;;;;;13.25;10.80;;;15.20;63.80;;;14.91;53.97;98034.94;5042720;28;20057;-46